createdAt,value
2022-12-03T00:00:10.510Z,107.40
2022-12-03T00:00:14.893Z,110.90
2022-12-03T00:00:24.917Z,110.10
2022-12-03T00:00:34.886Z,114.10
2022-12-03T00:00:44.882Z,114.70
2022-12-03T00:00:54.907Z,115.50
2022-12-03T00:01:05.709Z,110.70
2022-12-03T00:01:14.898Z,105.90
2022-12-03T00:01:24.895Z,106.90
2022-12-03T00:01:34.890Z,113.10
2022-12-03T00:01:44.901Z,115.20
2022-12-03T00:01:54.895Z,114.00
2022-12-03T00:02:04.902Z,112.40
2022-12-03T00:02:15.848Z,109.20
2022-12-03T00:02:25.032Z,108.10
2022-12-03T00:02:35.020Z,106.10
2022-12-03T00:02:45.159Z,109.60
2022-12-03T00:02:55.080Z,110.50
2022-12-03T00:03:05.076Z,109.50
2022-12-03T00:03:15.114Z,107.60
2022-12-03T00:03:25.085Z,106.30
2022-12-03T00:03:34.997Z,108.40
2022-12-03T00:03:45.062Z,109.10
2022-12-03T00:03:55.070Z,113.00
2022-12-03T00:04:05.000Z,113.00
2022-12-03T00:04:14.898Z,112.30
2022-12-03T00:04:24.872Z,112.30
2022-12-03T00:04:34.899Z,110.10
2022-12-03T00:04:44.872Z,109.10
2022-12-03T00:04:55.288Z,106.70
2022-12-03T00:05:05.043Z,108.90
2022-12-03T00:05:14.892Z,108.90
2022-12-03T00:05:24.872Z,105.20
2022-12-03T00:05:34.886Z,103.70
2022-12-03T00:05:49.103Z,105.70
2022-12-03T00:05:54.877Z,110.50
2022-12-03T00:06:04.957Z,114.70
2022-12-03T00:06:14.865Z,117.10
2022-12-03T00:06:25.659Z,118.00
2022-12-03T00:06:35.019Z,117.90
2022-12-03T00:06:44.877Z,113.40
2022-12-03T00:06:54.864Z,111.80
2022-12-03T00:07:04.887Z,114.50
2022-12-03T00:07:14.881Z,115.80
2022-12-03T00:07:24.920Z,118.10
2022-12-03T00:07:34.938Z,113.60
2022-12-03T00:07:44.900Z,115.80
2022-12-03T00:07:55.791Z,115.40
2022-12-03T00:08:04.931Z,119.00
2022-12-03T00:08:15.869Z,118.70
2022-12-03T00:08:24.859Z,113.30
2022-12-03T00:08:34.857Z,109.30
2022-12-03T00:08:44.863Z,107.70
2022-12-03T00:08:54.869Z,113.80
2022-12-03T00:09:04.859Z,113.20
2022-12-03T00:09:15.714Z,114.70
2022-12-03T00:09:24.870Z,114.30
2022-12-03T00:09:34.901Z,118.10
2022-12-03T00:09:44.856Z,122.60
2022-12-03T00:09:54.873Z,119.90
2022-12-03T00:10:04.846Z,117.20
2022-12-03T00:10:14.869Z,116.10
2022-12-03T00:10:24.888Z,119.00
2022-12-03T00:10:34.930Z,122.10
2022-12-03T00:10:44.852Z,117.60
2022-12-03T00:10:54.856Z,118.40
2022-12-03T00:11:04.850Z,114.10
2022-12-03T00:11:14.849Z,121.00
2022-12-03T00:11:24.871Z,119.30
2022-12-03T00:11:34.846Z,121.60
2022-12-03T00:11:44.857Z,116.90
2022-12-03T00:11:54.853Z,114.90
2022-12-03T00:12:04.861Z,113.30
2022-12-03T00:12:14.846Z,108.40
2022-12-03T00:12:24.841Z,113.20
2022-12-03T00:12:34.850Z,115.10
2022-12-03T00:12:44.864Z,117.70
2022-12-03T00:12:54.839Z,112.20
2022-12-03T00:13:05.060Z,112.00
2022-12-03T00:13:14.868Z,111.20
2022-12-03T00:13:25.734Z,112.60
2022-12-03T00:13:34.973Z,114.60
2022-12-03T00:13:44.871Z,119.90
2022-12-03T00:13:54.841Z,120.30
2022-12-03T00:14:04.839Z,121.50
2022-12-03T00:14:14.847Z,113.90
2022-12-03T00:14:24.872Z,113.00
2022-12-03T00:14:36.158Z,107.30
2022-12-03T00:14:45.161Z,108.20
2022-12-03T00:14:55.286Z,112.80
2022-12-03T00:15:04.874Z,113.00
2022-12-03T00:15:14.856Z,117.60
2022-12-03T00:15:24.844Z,112.70
2022-12-03T00:15:34.882Z,107.80
2022-12-03T00:15:44.936Z,106.60
2022-12-03T00:15:54.891Z,106.40
2022-12-03T00:16:04.902Z,111.90
2022-12-03T00:16:15.746Z,112.00
2022-12-03T00:16:24.855Z,114.70
2022-12-03T00:16:34.852Z,113.70
2022-12-03T00:16:44.836Z,109.20
2022-12-03T00:16:54.827Z,110.40
2022-12-03T00:17:04.958Z,112.30
2022-12-03T00:17:14.939Z,113.70
2022-12-03T00:17:24.849Z,109.30
2022-12-03T00:17:34.851Z,104.90
2022-12-03T00:17:44.816Z,108.70
2022-12-03T00:17:54.820Z,108.60
2022-12-03T00:18:05.743Z,110.40
2022-12-03T00:18:14.892Z,108.50
2022-12-03T00:18:24.826Z,107.10
2022-12-03T00:18:34.871Z,109.10
2022-12-03T00:18:44.825Z,111.30
2022-12-03T00:18:54.857Z,113.70
2022-12-03T00:19:04.875Z,115.70
2022-12-03T00:19:14.818Z,117.50
2022-12-03T00:19:24.887Z,118.20
2022-12-03T00:19:34.813Z,118.60
2022-12-03T00:19:44.812Z,113.90
2022-12-03T00:19:54.831Z,120.00
2022-12-03T00:20:04.817Z,118.20
2022-12-03T00:20:14.821Z,118.30
2022-12-03T00:20:24.838Z,114.20
2022-12-03T00:20:34.923Z,113.50
2022-12-03T00:20:44.810Z,114.80
2022-12-03T00:20:54.825Z,111.20
2022-12-03T00:21:04.808Z,109.10
2022-12-03T00:21:14.815Z,106.00
2022-12-03T00:21:25.094Z,112.60
2022-12-03T00:21:34.810Z,113.30
2022-12-03T00:21:44.809Z,117.20
2022-12-03T00:21:54.916Z,115.30
2022-12-03T00:22:05.211Z,116.60
2022-12-03T00:22:14.812Z,115.60
2022-12-03T00:22:24.804Z,119.40
2022-12-03T00:22:34.807Z,117.30
2022-12-03T00:22:44.828Z,113.40
2022-12-03T00:22:54.809Z,108.40
2022-12-03T00:23:04.802Z,112.20
2022-12-03T00:23:14.840Z,114.70
2022-12-03T00:23:24.964Z,112.90
2022-12-03T00:23:40.168Z,111.80
2022-12-03T00:23:44.827Z,112.00
2022-12-03T00:23:54.822Z,114.10
2022-12-03T00:24:04.804Z,117.50
2022-12-03T00:24:14.866Z,121.60
2022-12-03T00:24:25.735Z,123.20
2022-12-03T00:24:34.799Z,122.30
2022-12-03T00:24:44.791Z,125.90
2022-12-03T00:24:55.067Z,122.80
2022-12-03T00:25:04.837Z,118.70
2022-12-03T00:25:14.807Z,114.70
2022-12-03T00:25:24.809Z,119.50
2022-12-03T00:25:34.803Z,119.50
2022-12-03T00:25:44.892Z,119.20
2022-12-03T00:25:54.789Z,117.10
2022-12-03T00:26:04.861Z,117.20
2022-12-03T00:26:14.796Z,116.20
2022-12-03T00:26:24.787Z,116.60
2022-12-03T00:26:34.848Z,118.70
2022-12-03T00:26:44.791Z,120.20
2022-12-03T00:26:54.808Z,117.20
2022-12-03T00:27:04.820Z,115.30
2022-12-03T00:27:14.795Z,113.20
2022-12-03T00:27:25.713Z,112.60
2022-12-03T00:27:34.787Z,113.40
2022-12-03T00:27:44.785Z,112.70
2022-12-03T00:27:54.784Z,118.70
2022-12-03T00:28:04.776Z,118.40
2022-12-03T00:28:14.789Z,117.90
2022-12-03T00:28:24.794Z,114.40
2022-12-03T00:28:34.821Z,114.00
2022-12-03T00:28:44.782Z,113.80
2022-12-03T00:28:55.016Z,118.50
2022-12-03T00:29:05.760Z,122.30
2022-12-03T00:29:14.771Z,121.50
2022-12-03T00:29:24.791Z,118.10
2022-12-03T00:29:34.795Z,116.10
2022-12-03T00:29:44.776Z,115.50
2022-12-03T00:29:54.801Z,112.30
2022-12-03T00:30:04.778Z,111.70
2022-12-03T00:30:15.744Z,110.40
2022-12-03T00:30:24.784Z,112.00
2022-12-03T00:30:34.771Z,114.80
2022-12-03T00:30:44.876Z,116.60
2022-12-03T00:30:54.848Z,118.40
2022-12-03T00:31:04.953Z,120.40
2022-12-03T00:31:14.830Z,126.10
2022-12-03T00:31:24.840Z,130.50
2022-12-03T00:31:34.882Z,129.00
2022-12-03T00:31:44.844Z,125.30
2022-12-03T00:31:54.783Z,121.60
2022-12-03T00:32:04.789Z,120.30
2022-12-03T00:32:14.788Z,120.10
2022-12-03T00:32:24.765Z,115.10
2022-12-03T00:32:34.762Z,116.30
2022-12-03T00:32:44.765Z,118.30
2022-12-03T00:32:57.801Z,123.20
2022-12-03T00:33:04.839Z,125.60
2022-12-03T00:33:14.783Z,124.40
2022-12-03T00:33:24.769Z,119.70
2022-12-03T00:33:34.785Z,117.10
2022-12-03T00:33:45.340Z,117.20
2022-12-03T00:33:54.768Z,125.20
2022-12-03T00:34:04.782Z,128.90
2022-12-03T00:34:14.765Z,127.60
2022-12-03T00:34:24.797Z,125.90
2022-12-03T00:34:34.773Z,124.70
2022-12-03T00:34:44.786Z,124.70
2022-12-03T00:34:54.940Z,119.30
2022-12-03T00:35:04.775Z,118.80
2022-12-03T00:35:14.754Z,120.60
2022-12-03T00:35:25.725Z,130.30
2022-12-03T00:35:34.773Z,131.90
2022-12-03T00:35:45.752Z,129.50
2022-12-03T00:35:55.719Z,123.40
2022-12-03T00:36:04.781Z,118.00
2022-12-03T00:36:14.856Z,120.00
2022-12-03T00:36:24.769Z,115.10
2022-12-03T00:36:34.792Z,117.90
2022-12-03T00:36:44.756Z,113.40
2022-12-03T00:36:54.766Z,112.20
2022-12-03T00:37:04.740Z,112.70
2022-12-03T00:37:14.776Z,115.30
2022-12-03T00:37:24.810Z,119.50
2022-12-03T00:37:34.745Z,120.90
2022-12-03T00:37:44.748Z,119.10
2022-12-03T00:37:54.877Z,114.50
2022-12-03T00:38:04.739Z,108.00
2022-12-03T00:38:14.748Z,111.90
2022-12-03T00:38:24.765Z,118.80
2022-12-03T00:38:34.735Z,121.70
2022-12-03T00:38:44.738Z,120.20
2022-12-03T00:38:54.867Z,119.90
2022-12-03T00:39:04.732Z,121.90
2022-12-03T00:39:14.757Z,124.80
2022-12-03T00:39:24.812Z,122.60
2022-12-03T00:39:34.749Z,122.10
2022-12-03T00:39:45.717Z,119.80
2022-12-03T00:39:54.771Z,117.00
2022-12-03T00:40:04.936Z,117.30
2022-12-03T00:40:15.735Z,116.10
2022-12-03T00:40:24.730Z,118.90
2022-12-03T00:40:34.736Z,117.70
2022-12-03T00:40:44.741Z,119.40
2022-12-03T00:40:54.726Z,123.20
2022-12-03T00:41:04.761Z,124.90
2022-12-03T00:41:14.757Z,128.20
2022-12-03T00:41:27.846Z,125.30
2022-12-03T00:41:34.768Z,126.50
2022-12-03T00:41:44.760Z,124.10
2022-12-03T00:41:54.738Z,129.30
2022-12-03T00:42:04.733Z,131.80
2022-12-03T00:42:14.766Z,129.80
2022-12-03T00:42:25.812Z,126.30
2022-12-03T00:42:34.733Z,123.20
2022-12-03T00:42:44.868Z,123.80
2022-12-03T00:42:54.724Z,121.60
2022-12-03T00:43:04.738Z,121.20
2022-12-03T00:43:14.758Z,120.80
2022-12-03T00:43:24.740Z,120.10
2022-12-03T00:43:34.747Z,118.90
2022-12-03T00:43:44.739Z,118.70
2022-12-03T00:43:54.722Z,121.80
2022-12-03T00:44:04.767Z,124.50
2022-12-03T00:44:14.784Z,128.40
2022-12-03T00:44:24.916Z,130.50
2022-12-03T00:44:34.912Z,130.50
2022-12-03T00:44:44.741Z,127.00
2022-12-03T00:44:55.195Z,120.80
2022-12-03T00:45:04.750Z,118.90
2022-12-03T00:45:14.813Z,118.60
2022-12-03T00:45:24.724Z,124.40
2022-12-03T00:45:34.793Z,124.00
2022-12-03T00:45:44.710Z,126.20
2022-12-03T00:45:54.719Z,121.40
2022-12-03T00:46:04.829Z,122.60
2022-12-03T00:46:19.713Z,122.10
2022-12-03T00:46:24.824Z,120.70
2022-12-03T00:46:34.759Z,117.90
2022-12-03T00:46:44.931Z,123.40
2022-12-03T00:46:54.799Z,125.00
2022-12-03T00:47:04.787Z,128.60
2022-12-03T00:47:14.782Z,127.50
2022-12-03T00:47:24.733Z,131.00
2022-12-03T00:47:34.705Z,132.70
2022-12-03T00:47:44.708Z,130.90
2022-12-03T00:47:54.730Z,133.30
2022-12-03T00:48:04.704Z,131.60
2022-12-03T00:48:14.722Z,129.00
2022-12-03T00:48:24.741Z,125.40
2022-12-03T00:48:34.707Z,124.70
2022-12-03T00:48:44.702Z,122.80
2022-12-03T00:48:54.741Z,123.40
2022-12-03T00:49:04.714Z,128.80
2022-12-03T00:49:14.799Z,128.50
2022-12-03T00:49:24.733Z,128.60
2022-12-03T00:49:34.701Z,121.30
2022-12-03T00:49:44.702Z,125.80
2022-12-03T00:49:54.840Z,124.90
2022-12-03T00:50:04.702Z,130.30
2022-12-03T00:50:14.711Z,128.10
2022-12-03T00:50:24.716Z,130.80
2022-12-03T00:50:34.697Z,130.20
2022-12-03T00:50:44.714Z,129.00
2022-12-03T00:50:54.688Z,121.30
2022-12-03T00:51:04.702Z,116.70
2022-12-03T00:51:14.862Z,122.10
2022-12-03T00:51:24.690Z,125.60
2022-12-03T00:51:34.715Z,124.40
2022-12-03T00:51:44.716Z,122.90
2022-12-03T00:51:54.685Z,121.40
2022-12-03T00:52:04.690Z,118.60
2022-12-03T00:52:14.742Z,121.80
2022-12-03T00:52:24.720Z,126.70
2022-12-03T00:52:34.691Z,124.10
2022-12-03T00:52:44.733Z,117.40
2022-12-03T00:52:54.686Z,116.30
2022-12-03T00:53:05.234Z,125.30
2022-12-03T00:53:14.686Z,131.90
2022-12-03T00:53:24.703Z,125.10
2022-12-03T00:53:34.740Z,121.80
2022-12-03T00:53:44.682Z,116.90
2022-12-03T00:53:54.694Z,127.00
2022-12-03T00:54:04.748Z,128.00
2022-12-03T00:54:14.692Z,131.50
2022-12-03T00:54:30.215Z,127.60
2022-12-03T00:54:34.709Z,125.60
2022-12-03T00:54:44.688Z,122.90
2022-12-03T00:54:54.972Z,126.60
2022-12-03T00:55:04.706Z,128.10
2022-12-03T00:55:14.775Z,127.50
2022-12-03T00:55:25.249Z,121.00
2022-12-03T00:55:34.712Z,116.70
2022-12-03T00:55:44.675Z,115.80
2022-12-03T00:55:54.683Z,120.80
2022-12-03T00:56:04.672Z,123.20
2022-12-03T00:56:14.699Z,128.80
2022-12-03T00:56:24.700Z,126.60
2022-12-03T00:56:34.670Z,127.70
2022-12-03T00:56:44.778Z,126.10
2022-12-03T00:56:54.888Z,124.30
2022-12-03T00:57:04.668Z,123.10
2022-12-03T00:57:14.798Z,127.00
2022-12-03T00:57:24.688Z,132.70
2022-12-03T00:57:34.797Z,135.80
2022-12-03T00:57:44.675Z,126.50
2022-12-03T00:57:54.698Z,122.20
2022-12-03T00:58:05.250Z,115.80
2022-12-03T00:58:14.769Z,119.30
2022-12-03T00:58:24.698Z,118.40
2022-12-03T00:58:34.662Z,123.40
2022-12-03T00:58:44.691Z,123.70
2022-12-03T00:58:54.656Z,124.00
2022-12-03T00:59:04.670Z,122.20
2022-12-03T00:59:14.703Z,121.20
2022-12-03T00:59:24.677Z,119.20
2022-12-03T00:59:34.789Z,120.10
2022-12-03T00:59:44.674Z,121.60
2022-12-03T00:59:54.678Z,124.40
2022-12-03T01:00:04.667Z,125.30
2022-12-03T01:00:14.879Z,123.40
2022-12-03T01:00:25.318Z,124.40
2022-12-03T01:00:34.669Z,123.30
2022-12-03T01:00:44.686Z,123.60
2022-12-03T01:00:54.662Z,116.70
2022-12-03T01:01:04.667Z,118.50
2022-12-03T01:01:14.738Z,117.80
2022-12-03T01:01:24.762Z,122.30
2022-12-03T01:01:34.747Z,128.70
2022-12-03T01:01:44.729Z,126.80
2022-12-03T01:01:54.701Z,125.50
2022-12-03T01:02:04.748Z,120.70
2022-12-03T01:02:14.750Z,122.20
2022-12-03T01:02:24.721Z,124.00
2022-12-03T01:02:34.730Z,122.80
2022-12-03T01:02:44.645Z,121.80
2022-12-03T01:02:54.643Z,119.10
2022-12-03T01:03:04.716Z,118.30
2022-12-03T01:03:14.641Z,120.30
2022-12-03T01:03:25.238Z,120.40
2022-12-03T01:03:34.667Z,119.70
2022-12-03T01:03:44.693Z,119.40
2022-12-03T01:03:54.635Z,123.00
2022-12-03T01:04:04.671Z,126.30
2022-12-03T01:04:14.664Z,127.80
2022-12-03T01:04:24.711Z,124.00
2022-12-03T01:04:34.738Z,123.20
2022-12-03T01:04:44.748Z,118.10
2022-12-03T01:04:54.892Z,119.00
2022-12-03T01:05:04.708Z,116.60
2022-12-03T01:05:14.786Z,122.60
2022-12-03T01:05:24.661Z,119.60
2022-12-03T01:05:34.647Z,118.70
2022-12-03T01:05:44.641Z,116.40
2022-12-03T01:05:54.657Z,122.00
2022-12-03T01:06:04.635Z,123.50
2022-12-03T01:06:14.638Z,121.90
2022-12-03T01:06:24.661Z,120.50
2022-12-03T01:06:35.221Z,116.30
2022-12-03T01:06:45.304Z,126.60
2022-12-03T01:06:54.651Z,124.90
2022-12-03T01:07:04.640Z,130.30
2022-12-03T01:07:14.634Z,118.60
2022-12-03T01:07:24.740Z,113.50
2022-12-03T01:07:34.748Z,111.60
2022-12-03T01:07:44.730Z,112.90
2022-12-03T01:07:54.757Z,118.30
2022-12-03T01:08:05.395Z,118.20
2022-12-03T01:08:14.814Z,124.00
2022-12-03T01:08:24.650Z,124.70
2022-12-03T01:08:34.694Z,124.30
2022-12-03T01:08:44.649Z,117.20
2022-12-03T01:08:54.618Z,115.10
2022-12-03T01:09:04.637Z,112.90
2022-12-03T01:09:15.246Z,111.90
2022-12-03T01:09:24.692Z,115.70
2022-12-03T01:09:34.636Z,121.90
2022-12-03T01:09:44.655Z,129.00
2022-12-03T01:09:54.699Z,127.30
2022-12-03T01:10:04.636Z,126.10
2022-12-03T01:10:14.635Z,124.50
2022-12-03T01:10:24.614Z,125.30
2022-12-03T01:10:34.635Z,124.30
2022-12-03T01:10:44.655Z,123.50
2022-12-03T01:10:54.614Z,124.30
2022-12-03T01:11:05.226Z,121.90
2022-12-03T01:11:14.694Z,120.00
2022-12-03T01:11:24.709Z,115.20
2022-12-03T01:11:34.653Z,116.20
2022-12-03T01:11:44.639Z,116.60
2022-12-03T01:11:54.609Z,118.60
2022-12-03T01:12:04.619Z,115.90
2022-12-03T01:12:14.710Z,116.70
2022-12-03T01:12:24.605Z,117.20
2022-12-03T01:12:34.630Z,117.90
2022-12-03T01:12:44.666Z,115.20
2022-12-03T01:12:54.617Z,118.00
2022-12-03T01:13:04.623Z,119.00
2022-12-03T01:13:14.609Z,119.00
2022-12-03T01:13:24.719Z,115.80
2022-12-03T01:13:34.639Z,118.20
2022-12-03T01:13:44.599Z,117.50
2022-12-03T01:13:54.626Z,118.30
2022-12-03T01:14:04.638Z,113.00
2022-12-03T01:14:14.603Z,110.70
2022-12-03T01:14:24.616Z,115.90
2022-12-03T01:14:34.707Z,120.70
2022-12-03T01:14:44.599Z,125.10
2022-12-03T01:14:54.949Z,118.50
2022-12-03T01:15:04.806Z,112.70
2022-12-03T01:15:14.593Z,112.70
2022-12-03T01:15:24.609Z,114.30
2022-12-03T01:15:34.668Z,118.80
2022-12-03T01:15:44.653Z,119.70
2022-12-03T01:15:54.669Z,116.20
2022-12-03T01:16:04.668Z,113.50
2022-12-03T01:16:14.637Z,112.90
2022-12-03T01:16:24.769Z,115.00
2022-12-03T01:16:34.717Z,114.70
2022-12-03T01:16:44.642Z,114.00
2022-12-03T01:16:54.621Z,111.30
2022-12-03T01:17:04.596Z,113.40
2022-12-03T01:17:14.595Z,117.80
2022-12-03T01:17:24.627Z,122.40
2022-12-03T01:17:34.628Z,121.10
2022-12-03T01:17:44.618Z,123.90
2022-12-03T01:17:55.237Z,124.90
2022-12-03T01:18:04.588Z,129.50
2022-12-03T01:18:14.596Z,124.30
2022-12-03T01:18:25.292Z,119.90
2022-12-03T01:18:34.585Z,116.70
2022-12-03T01:18:44.598Z,119.00
2022-12-03T01:18:54.586Z,120.80
2022-12-03T01:19:04.584Z,119.40
2022-12-03T01:19:15.235Z,115.40
2022-12-03T01:19:24.582Z,115.10
2022-12-03T01:19:34.590Z,113.10
2022-12-03T01:19:48.199Z,112.60
2022-12-03T01:19:54.652Z,111.00
2022-12-03T01:20:04.583Z,115.00
2022-12-03T01:20:14.640Z,118.10
2022-12-03T01:20:25.259Z,115.60
2022-12-03T01:20:34.600Z,116.60
2022-12-03T01:20:44.583Z,123.50
2022-12-03T01:20:54.578Z,128.00
2022-12-03T01:21:04.589Z,126.70
2022-12-03T01:21:14.619Z,120.40
2022-12-03T01:21:24.578Z,120.00
2022-12-03T01:21:34.577Z,123.30
2022-12-03T01:21:44.582Z,122.20
2022-12-03T01:21:54.590Z,120.70
2022-12-03T01:22:04.593Z,117.50
2022-12-03T01:22:14.627Z,118.20
2022-12-03T01:22:24.569Z,122.30
2022-12-03T01:22:34.580Z,121.50
2022-12-03T01:22:44.566Z,118.00
2022-12-03T01:22:54.574Z,116.90
2022-12-03T01:23:04.611Z,117.40
2022-12-03T01:23:14.559Z,124.60
2022-12-03T01:23:24.619Z,125.40
2022-12-03T01:23:34.602Z,126.70
2022-12-03T01:23:44.571Z,119.30
2022-12-03T01:23:54.581Z,117.10
2022-12-03T01:24:04.589Z,117.50
2022-12-03T01:24:14.567Z,118.40
2022-12-03T01:24:24.568Z,118.60
2022-12-03T01:24:34.573Z,120.80
2022-12-03T01:24:44.583Z,117.70
2022-12-03T01:24:54.859Z,116.30
2022-12-03T01:25:04.722Z,105.50
2022-12-03T01:25:14.563Z,105.90
2022-12-03T01:25:24.728Z,110.30
2022-12-03T01:25:34.614Z,116.80
2022-12-03T01:25:45.396Z,115.90
2022-12-03T01:25:54.579Z,115.10
2022-12-03T01:26:04.609Z,118.50
2022-12-03T01:26:14.639Z,117.10
2022-12-03T01:26:24.621Z,115.80
2022-12-03T01:26:34.552Z,117.50
2022-12-03T01:26:44.548Z,119.80
2022-12-03T01:26:54.571Z,120.80
2022-12-03T01:27:04.545Z,119.10
2022-12-03T01:27:14.658Z,116.20
2022-12-03T01:27:25.239Z,117.70
2022-12-03T01:27:34.627Z,118.20
2022-12-03T01:27:44.554Z,118.60
2022-12-03T01:27:54.592Z,119.90
2022-12-03T01:28:04.546Z,116.30
2022-12-03T01:28:14.559Z,118.80
2022-12-03T01:28:24.537Z,114.20
2022-12-03T01:28:34.560Z,115.30
2022-12-03T01:28:44.566Z,117.60
2022-12-03T01:28:54.596Z,118.20
2022-12-03T01:29:04.565Z,116.20
2022-12-03T01:29:14.574Z,113.60
2022-12-03T01:29:24.638Z,117.20
2022-12-03T01:29:34.636Z,119.00
2022-12-03T01:29:44.556Z,118.40
2022-12-03T01:29:54.536Z,116.20
2022-12-03T01:30:04.547Z,121.20
2022-12-03T01:30:14.602Z,123.50
2022-12-03T01:30:27.302Z,119.60
2022-12-03T01:30:34.644Z,113.90
2022-12-03T01:30:44.676Z,114.20
2022-12-03T01:30:54.622Z,115.10
2022-12-03T01:31:04.594Z,112.60
2022-12-03T01:31:14.596Z,108.30
2022-12-03T01:31:24.871Z,112.80
2022-12-03T01:31:34.777Z,115.90
2022-12-03T01:31:47.322Z,119.20
2022-12-03T01:31:54.527Z,118.70
2022-12-03T01:32:04.559Z,126.90
2022-12-03T01:32:14.537Z,130.90
2022-12-03T01:32:24.562Z,128.80
2022-12-03T01:32:35.241Z,121.50
2022-12-03T01:32:44.529Z,121.10
2022-12-03T01:32:54.611Z,122.70
2022-12-03T01:33:04.545Z,121.20
2022-12-03T01:33:14.527Z,117.80
2022-12-03T01:33:24.578Z,115.90
2022-12-03T01:33:34.558Z,120.20
2022-12-03T01:33:44.524Z,119.90
2022-12-03T01:33:54.535Z,124.50
2022-12-03T01:34:04.610Z,118.60
2022-12-03T01:34:14.615Z,118.10
2022-12-03T01:34:24.539Z,115.20
2022-12-03T01:34:34.579Z,115.60
2022-12-03T01:34:44.529Z,118.50
2022-12-03T01:34:54.974Z,115.90
2022-12-03T01:35:05.233Z,114.30
2022-12-03T01:35:14.525Z,110.70
2022-12-03T01:35:24.545Z,107.40
2022-12-03T01:35:34.513Z,106.50
2022-12-03T01:35:44.562Z,108.80
2022-12-03T01:35:54.547Z,114.40
2022-12-03T01:36:04.520Z,112.90
2022-12-03T01:36:14.555Z,114.60
2022-12-03T01:36:24.550Z,109.60
2022-12-03T01:36:34.510Z,109.60
2022-12-03T01:36:44.520Z,108.60
2022-12-03T01:36:54.558Z,113.70
2022-12-03T01:37:04.515Z,114.70
2022-12-03T01:37:14.527Z,111.00
2022-12-03T01:37:25.279Z,113.80
2022-12-03T01:37:34.534Z,114.20
2022-12-03T01:37:44.517Z,118.10
2022-12-03T01:37:54.541Z,115.30
2022-12-03T01:38:04.519Z,122.10
2022-12-03T01:38:14.583Z,118.50
2022-12-03T01:38:24.506Z,124.70
2022-12-03T01:38:34.510Z,121.30
2022-12-03T01:38:45.246Z,121.90
2022-12-03T01:38:54.502Z,112.10
2022-12-03T01:39:04.522Z,111.10
2022-12-03T01:39:14.531Z,111.10
2022-12-03T01:39:24.508Z,114.10
2022-12-03T01:39:34.524Z,111.10
2022-12-03T01:39:44.524Z,115.60
2022-12-03T01:39:54.503Z,117.70
2022-12-03T01:40:04.509Z,119.90
2022-12-03T01:40:14.521Z,114.40
2022-12-03T01:40:24.496Z,104.40
2022-12-03T01:40:34.511Z,106.40
2022-12-03T01:40:44.544Z,111.50
2022-12-03T01:40:54.579Z,117.50
2022-12-03T01:41:08.638Z,115.00
2022-12-03T01:41:14.497Z,110.90
2022-12-03T01:41:24.511Z,115.00
2022-12-03T01:41:34.563Z,116.00
2022-12-03T01:41:44.497Z,114.20
2022-12-03T01:41:54.504Z,110.90
2022-12-03T01:42:04.517Z,104.90
2022-12-03T01:42:14.499Z,105.10
2022-12-03T01:42:24.542Z,106.10
2022-12-03T01:42:34.538Z,113.40
2022-12-03T01:42:44.521Z,117.60
2022-12-03T01:42:54.503Z,118.60
2022-12-03T01:43:04.658Z,118.90
2022-12-03T01:43:14.594Z,114.70
2022-12-03T01:43:24.508Z,112.30
2022-12-03T01:43:34.481Z,112.50
2022-12-03T01:43:44.485Z,118.00
2022-12-03T01:43:54.500Z,117.40
2022-12-03T01:44:04.536Z,116.10
2022-12-03T01:44:14.495Z,112.10
2022-12-03T01:44:24.551Z,112.40
2022-12-03T01:44:34.488Z,111.10
2022-12-03T01:44:44.504Z,114.50
2022-12-03T01:44:54.905Z,112.90
2022-12-03T01:45:04.553Z,111.30
2022-12-03T01:45:14.502Z,104.50
2022-12-03T01:45:24.523Z,108.10
2022-12-03T01:45:34.476Z,110.70
2022-12-03T01:45:45.230Z,117.70
2022-12-03T01:45:54.514Z,119.80
2022-12-03T01:46:04.595Z,116.30
2022-12-03T01:46:14.570Z,113.80
2022-12-03T01:46:24.624Z,109.20
2022-12-03T01:46:34.537Z,113.90
2022-12-03T01:46:44.549Z,110.80
2022-12-03T01:46:57.493Z,116.10
2022-12-03T01:47:04.556Z,116.00
2022-12-03T01:47:14.593Z,116.20
2022-12-03T01:47:24.475Z,113.40
2022-12-03T01:47:34.478Z,112.00
2022-12-03T01:47:44.484Z,117.40
2022-12-03T01:47:54.472Z,117.00
2022-12-03T01:48:04.478Z,116.40
2022-12-03T01:48:14.484Z,116.00
2022-12-03T01:48:24.476Z,115.60
2022-12-03T01:48:34.683Z,113.60
2022-12-03T01:48:44.495Z,113.20
2022-12-03T01:48:54.485Z,112.80
2022-12-03T01:49:04.461Z,113.40
2022-12-03T01:49:14.490Z,110.80
2022-12-03T01:49:24.470Z,111.70
2022-12-03T01:49:34.512Z,112.20
2022-12-03T01:49:44.454Z,111.50
2022-12-03T01:49:55.336Z,115.40
2022-12-03T01:50:04.470Z,117.40
2022-12-03T01:50:15.238Z,118.20
2022-12-03T01:50:24.460Z,113.80
2022-12-03T01:50:34.471Z,118.10
2022-12-03T01:50:44.557Z,119.50
2022-12-03T01:50:54.463Z,116.60
2022-12-03T01:51:05.231Z,111.70
2022-12-03T01:51:14.551Z,111.40
2022-12-03T01:51:24.450Z,109.20
2022-12-03T01:51:34.468Z,110.50
2022-12-03T01:51:44.459Z,112.10
2022-12-03T01:51:54.659Z,114.00
2022-12-03T01:52:04.471Z,108.50
2022-12-03T01:52:14.461Z,108.60
2022-12-03T01:52:24.464Z,108.00
2022-12-03T01:52:34.506Z,108.40
2022-12-03T01:52:44.518Z,107.00
2022-12-03T01:52:54.457Z,106.60
2022-12-03T01:53:04.443Z,107.70
2022-12-03T01:53:14.444Z,103.80
2022-12-03T01:53:24.486Z,103.40
2022-12-03T01:53:34.462Z,106.30
2022-12-03T01:53:44.447Z,109.30
2022-12-03T01:53:54.461Z,108.10
2022-12-03T01:54:05.251Z,109.40
2022-12-03T01:54:14.450Z,105.60
2022-12-03T01:54:24.461Z,107.50
2022-12-03T01:54:34.468Z,104.40
2022-12-03T01:54:44.472Z,106.40
2022-12-03T01:54:54.795Z,103.50
2022-12-03T01:55:04.439Z,102.20
2022-12-03T01:55:14.451Z,99.40
2022-12-03T01:55:24.472Z,102.30
2022-12-03T01:55:34.550Z,103.80
2022-12-03T01:55:48.467Z,107.10
2022-12-03T01:55:54.459Z,103.20
2022-12-03T01:56:04.449Z,105.70
2022-12-03T01:56:14.445Z,107.30
2022-12-03T01:56:24.566Z,113.30
2022-12-03T01:56:34.449Z,109.20
2022-12-03T01:56:44.445Z,107.00
2022-12-03T01:56:55.270Z,105.80
2022-12-03T01:57:04.434Z,110.20
2022-12-03T01:57:15.273Z,112.10
2022-12-03T01:57:24.430Z,108.30
2022-12-03T01:57:34.437Z,110.10
2022-12-03T01:57:44.442Z,107.60
2022-12-03T01:57:54.434Z,108.40
2022-12-03T01:58:04.433Z,104.50
2022-12-03T01:58:14.448Z,107.00
2022-12-03T01:58:24.427Z,108.00
2022-12-03T01:58:34.512Z,110.80
2022-12-03T01:58:44.444Z,109.50
2022-12-03T01:58:54.431Z,111.20
2022-12-03T01:59:04.445Z,110.90
2022-12-03T01:59:14.448Z,107.90
2022-12-03T01:59:24.435Z,110.90
2022-12-03T01:59:34.447Z,108.80
2022-12-03T01:59:44.490Z,107.70
2022-12-03T01:59:54.416Z,103.30
2022-12-03T02:00:04.429Z,104.60
2022-12-03T02:00:14.419Z,109.70
2022-12-03T02:00:24.425Z,110.30
2022-12-03T02:00:34.456Z,108.40
2022-12-03T02:00:44.497Z,104.90
2022-12-03T02:00:54.422Z,103.90
2022-12-03T02:01:04.444Z,102.80
2022-12-03T02:01:14.480Z,103.80
2022-12-03T02:01:25.309Z,98.50
2022-12-03T02:01:34.511Z,103.30
2022-12-03T02:01:44.521Z,99.60
2022-12-03T02:01:54.424Z,100.00
2022-12-03T02:02:04.544Z,95.50
2022-12-03T02:02:14.496Z,98.20
2022-12-03T02:02:24.412Z,104.20
2022-12-03T02:02:34.536Z,105.80
2022-12-03T02:02:44.403Z,108.00
2022-12-03T02:02:54.415Z,103.70
2022-12-03T02:03:04.405Z,102.30
2022-12-03T02:03:14.425Z,98.10
2022-12-03T02:03:24.428Z,96.70
2022-12-03T02:03:34.524Z,94.10
2022-12-03T02:03:44.491Z,95.40
2022-12-03T02:03:55.456Z,97.00
2022-12-03T02:04:04.486Z,98.80
2022-12-03T02:04:14.465Z,101.60
2022-12-03T02:04:24.482Z,105.30
2022-12-03T02:04:34.418Z,108.20
2022-12-03T02:04:44.405Z,103.20